^^

Nearby METAR Reports

 

LIRH - Frosinone (it-Af, Italy
Distance from station: SO 5km
Dati ricevuti: 04/03/2021 07:55
Nebbia, Parz. nuvoloso
Nebbia, Parz. nuvoloso
 Vento da OSO
Vento: OSO 6 km/h
Temperatura: 3°C
P.to Rugiada: 2°C
Umidità: 93%
Barometro: 1027 hPa
Summary: Nebbia
Clouds: Parz. nuvoloso
Visibility: 1 km
Cloud details: Parz. nuvoloso 61 m
2021/03/04 06:55 LIRH 040655Z 24003KT 0600 FG SCT002 03/02 Q1027
LIRL - Latina (it-Afb), Italy
Distance from station: OSO 40km
Dati ricevuti: 04/03/2021 07:55
Parz. nuvoloso
Parz. nuvoloso
 Vento da calm
Vento: Calma
Temperatura: 3°C
P.to Rugiada: 2°C
Umidità: 93%
Barometro: 1027 hPa
Clouds: Parz. nuvoloso
Visibility: 7 km
2021/03/04 06:55 LIRL 040655Z 00000KT 7000 NSC 03/02 Q1027
 
LIRG - Guidonia (it-Afb, Italy
Distance from station: NO 63km
Dati ricevuti: 04/03/2021 07:55
Sereno
Sereno
 Vento da NE
Vento: NE 2 km/h
Temperatura: 6°C
P.to Rugiada: 4°C
Umidità: 87%
Barometro: 1027 hPa
Summary: Sereno
Visibility: greater than 10 km
2021/03/04 06:55 LIRG 040655Z 04001KT CAVOK 06/04 Q1027
LIRA - Ciampino(It-Afb/, Italy
Distance from station: ONO 64km
Dati ricevuti: 04/03/2021 07:50
Sereno
Sereno
 Vento da E
Vento: E 4 km/h
Temperatura: 5°C
P.to Rugiada: 3°C
Umidità: 87%
Barometro: 1026 hPa
Summary: Sereno
Visibility: greater than 10 km
2021/03/04 06:50 LIRA 040650Z 09002KT CAVOK 05/03 Q1026
 
LIRU - Roma/Urbe (it-Af, Italy
Distance from station: ONO 76km
Dati ricevuti: 04/03/2021 07:50
Patches of fog, Parz. nuvoloso
Patches of fog, Parz. nuvoloso
 Vento da N
Vento: N 7 km/h
Temperatura: 4°C
Temperatura del Vento: 2°C
P.to Rugiada: 3°C
Umidità: 93%
Barometro: 1027 hPa
Summary: Patches of Fog
Clouds: Parz. nuvoloso
Visibility: 2 km
2021/03/04 06:50 LIRU 040650Z 35004KT 1500 0800S BCFG NSC 04/03 Q1027
LIRE - Pratica Di Mare(, Italy
Distance from station: O 77km
Dati ricevuti: 04/03/2021 06:55
Shallow fog, Parz. nuvoloso
Shallow fog, Parz. nuvoloso
 Vento da E
Vento: E 7 km/h
Temperatura: 6°C
Temperatura del Vento: 4°C
P.to Rugiada: 4°C
Umidità: 87%
Barometro: 1026 hPa
Summary: Shallow Fog
Clouds: Parz. nuvoloso
Visibility: 6 km
2021/03/04 05:55 LIRE 040555Z 10004KT 6000 MIFG NSC 06/04 Q1026 RMK SKC VIS MIN 6000 WIND THR13 11002KT WIND THR31 /////KT WHT
 
LIQN - Rieti, Italy
Distance from station: NNO 92km
Dati ricevuti: 03/03/2021 17:50
Non Attivo
Sereno
Sereno
 Vento da varies
Vento: varies 6 km/h
Temperatura: 15°C
P.to Rugiada: -2°C
Umidità: 31%
Barometro: 1027 hPa
Summary: Sereno
Visibility: greater than 10 km
2021/03/03 16:50 LIQN 031650Z VRB03KT CAVOK 15/M02 Q1027
LIRK - Terminillo, Italy
Distance from station: NNO 93km
Dati ricevuti: 04/03/2021 06:55

 Vento da ONO
Vento: ONO 22 km/h
Temperatura: -1°C
Temperatura del Vento: -7°C
P.to Rugiada: -19°C
Umidità: 24%
Barometro: 1024 hPa
2021/03/04 05:55 LIRK 040555Z AUTO 29012KT //// M01/M19 Q1024
 
LIRF - Roma/Fiumicino, Italy
Distance from station: O 94km
Dati ricevuti: 04/03/2021 07:50
Patches of fog, Parz. nuvoloso
Patches of fog, Parz. nuvoloso
 Vento da NE
Vento: NE 4 km/h
Temperatura: 3°C
P.to Rugiada: 2°C
Umidità: 93%
Barometro: 1027 hPa
Summary: Patches of Fog
Clouds: Parz. nuvoloso
Visibility: 2 km
2021/03/04 06:50 LIRF 040650Z 05002KT 1500 0100NE R16L/0250N R16R/0225N R25/P1500N R34R/0800N BCFG NSC 03/02 Q1027 NOSIG
LIRM - Grazzanise (it-A, Italy
Distance from station: SE 94km
Dati ricevuti: 04/03/2021 07:55
Few Clouds
Few Clouds
 Vento da varies
Vento: varies 0 km/h
Temperatura: 3°C
P.to Rugiada: 3°C
Umidità: 100%
Barometro: 1027 hPa
Clouds: Few Clouds
Visibility: 7 km
Cloud details: Few Clouds 610 m
2021/03/04 06:55 LIRM 040655Z /////KT 7000 FEW020 03/03 Q1027
 
LIBP - Pescara, Italy
Distance from station: NE 108km
Dati ricevuti: 04/03/2021 07:50
Sereno
Sereno
 Vento da varies
Vento: varies 2 km/h
Temperatura: 3°C
P.to Rugiada: 1°C
Umidità: 87%
Barometro: 1025 hPa
Clouds: Sereno
Visibility: 10 km
2021/03/04 06:50 LIBP 040650Z AUTO VRB01KT 9999 NCD 03/01 Q1025
LIRN - Napoli/Capodichino, Italy
Distance from station: SE 120km
Dati ricevuti: 04/03/2021 07:50
Parz. nuvoloso
Parz. nuvoloso
 Vento da varies
Vento: varies 2 km/h
Temperatura: 6°C
P.to Rugiada: 3°C
Umidità: 81%
Barometro: 1027 hPa
Clouds: Parz. nuvoloso
Visibility: 7 km
2021/03/04 06:50 LIRN 040650Z VRB01KT 7000 NSC 06/03 Q1027 NOSIG
 
LIRV - Viterbo (it-Mil), Italy
Distance from station: NO 133km
Dati ricevuti: 04/03/2021 07:55
Nebbia, Nuvoloso
Nebbia, Nuvoloso
 Vento da NNE
Vento: NNE 11 km/h
Temperatura: 2°C
Temperatura del Vento: -1°C
P.to Rugiada: 1°C
Umidità: 93%
Barometro: 1026 hPa
Summary: Nebbia
Clouds: Molto nuvoloso
Visibility: 0 km
Cloud details: Molto nuvoloso 30 m
2021/03/04 06:55 LIRV 040655Z 03006KT 0150 FG BKN001 02/01 Q1026
LIQC - Capri, Italy
Distance from station: SSE 145km
Dati ricevuti: 04/03/2021 06:55
Sereno
Sereno
 Vento da calm
Vento: Calma
Temperatura: 9°C
P.to Rugiada: 7°C
Umidità: 87%
Barometro: 1028 hPa
Summary: Sereno
Visibility: greater than 10 km
2021/03/04 05:55 LIQC 040555Z 00000KT CAVOK 09/07 Q1028 RMK SCT SCT053 QUK 1 QUL 0 VIS MAR 20 KM VIS MIN 9999
 
LIRT - Trevico, Italy
Distance from station: ESE 172km
Dati ricevuti: 04/03/2021 05:55
Non Attivo
Sereno
Sereno
 Vento da O
Vento: O 24 km/h
Temperatura: 3°C
Temperatura del Vento: -2°C
P.to Rugiada: 0°C
Umidità: 81%
Barometro: 1025 hPa
Summary: Sereno
Visibility: greater than 10 km
2021/03/04 04:55 LIRT 040455Z 28013KT CAVOK 03/00 Q1025 RMK SKC MON INVIS VAL INVIS VIS MIN 9999
LIRZ - Perugia, Italy
Distance from station: NNO 172km
Dati ricevuti: 04/03/2021 07:50
Sereno
Sereno
 Vento da varies
Vento: varies 2 km/h
Temperatura: 1°C
P.to Rugiada: 0°C
Umidità: 93%
Barometro: 1026 hPa
Clouds: Sereno
2021/03/04 06:50 LIRZ 040650Z AUTO VRB01KT //// // NCD 01/00 Q1026
 
LIRI - Pontecagnano (af, Italy
Distance from station: SE 177km
Dati ricevuti: 03/03/2021 16:50
Non Attivo
Sereno
Sereno
 Vento da SSO
Vento: SSO 9 km/h
Temperatura: 14°C
P.to Rugiada: 6°C
Umidità: 59%
Barometro: 1030 hPa
Summary: Sereno
Visibility: greater than 10 km
2021/03/03 15:50 LIRI 031550Z 20005KT CAVOK 14/06 Q1030
LIBF - Foggia/Gino Lisa, Italy
Distance from station: E 183km
Dati ricevuti: 03/03/2021 15:50
Non Attivo
Sereno
Sereno
 Vento da calm
Vento: Calma
Temperatura: 17°C
P.to Rugiada: 0°C
Umidità: 32%
Barometro: 1029 hPa
Summary: Sereno
Visibility: greater than 10 km
2021/03/03 14:50 LIBF 031450Z 00000KT CAVOK 17/00 Q1029
 
LIQO - Monte Argentario, Italy
Distance from station: ONO 195km
Dati ricevuti: 03/03/2021 13:55
Non Attivo
Sereno
Sereno
 Vento da SO
Vento: SO 6 km/h
Temperatura: 14°C
P.to Rugiada: -1°C
Umidità: 36%
Barometro: 1031 hPa
Summary: Sereno
Visibility: greater than 10 km
2021/03/03 12:55 LIQO 031255Z 23003KT CAVOK 14/M01 Q1031
LIBA - Amendola (it-Afb, Italy
Distance from station: E 198km
Dati ricevuti: 04/03/2021 06:55
Mist, Few clouds
Mist, Few clouds
 Vento da NE
Vento: NE 7 km/h
Temperatura: 2°C
Temperatura del Vento: 0°C
P.to Rugiada: 2°C
Umidità: 100%
Barometro: 1026 hPa
Summary: Mist
Clouds: Few Clouds
Visibility: 5 km
Cloud details: Few Clouds 183 m
2021/03/04 05:55 LIBA 040555Z 04004KT 5000 BR FEW006 02/02 Q1026 RMK FEW VIS MIN 5000 WIND THR11 01003KT WIND THR29 /////KT WHT
 
LIBN - Lecce (it-Afb), Italy
Dati ricevuti: 04/03/2021 07:07
Mist, Parz. nuvoloso
Mist, Parz. nuvoloso
 Vento da ESE
Vento: ESE 4 km/h
Temperatura: 3°C
P.to Rugiada: 3°C
Umidità: 100%
Barometro: 1026 hPa
Summary: Mist
Clouds: Parz. nuvoloso
Visibility: 5 km
2021/03/04 06:07 LIBN 040607Z 11002KT 5000 BR NSC 03/03 Q1026 RMK SKC VIS MIN 5000 WIND THR14 13003KT WIND THR32 11002KT WHT
LIPY - Ancona-Falconara, Italy
Dati ricevuti: 04/03/2021 07:50
Sereno
Sereno
 Vento da SSO
Vento: SSO 6 km/h
Temperatura: 4°C
P.to Rugiada: 2°C
Umidità: 87%
Barometro: 1025 hPa
Clouds: Sereno
Visibility: 10 km
2021/03/04 06:50 LIPY 040650Z AUTO 20003KT 9999 NCD 04/02 Q1025
 
LICJ - Palermo-Punta Raisi, Italy
Dati ricevuti: 04/03/2021 07:50
Few Clouds
Few Clouds
 Vento da SSE
Vento: SSE 11 km/h
Temperatura: 11°C
P.to Rugiada: 7°C
Umidità: 77%
Barometro: 1027 hPa
Clouds: Few Clouds
Visibility: 10 km
Cloud details: Few Clouds 1829 m
2021/03/04 06:50 LICJ 040650Z 15006KT 130V190 9999 FEW060 11/07 Q1027
LIEB - Capo Bellavista, Italy
Dati ricevuti: 04/03/2021 06:55
Molto nuvoloso
Molto nuvoloso
 Vento da NO
Vento: NO 22 km/h
Temperatura: 9°C
Temperatura del Vento: 6°C
P.to Rugiada: 2°C
Umidità: 62%
Barometro: 1025 hPa
Clouds: Molto nuvoloso
Visibility: 10 km
Cloud details: Few Clouds 1067 m
Molto nuvoloso 1219 m
2021/03/04 05:55 LIEB 040555Z 31012KT 9999 FEW035 BKN040 09/02 Q1025 RMK BKN QUK 2 QUL 0 VIS MAR 30 KM MON LIB VIS MIN 9999
 
LIEC - Capo Carbonara, Italy
Dati ricevuti: 04/03/2021 06:55
Molto nuvoloso
Molto nuvoloso
 Vento da ENE
Vento: ENE 19 km/h
Temperatura: 12°C
P.to Rugiada: 10°C
Umidità: 88%
Barometro: 1025 hPa
Clouds: Molto nuvoloso
Visibility: 10 km
Cloud details: Few Clouds 457 m
Molto nuvoloso 610 m
2021/03/04 05:55 LIEC 040555Z 07010KT 9999 FEW015 BKN020 12/10 Q1025 RMK OVC QUK 2 QUL 0 VIS MAR 16 KM VIS MIN 9999
LIED - Cagliari-Decimomannu(It-A, Italy
Dati ricevuti: 04/03/2021 02:55
Non Attivo
Sereno
Sereno
 Vento da N
Vento: N 9 km/h
Temperatura: 7°C
Temperatura del Vento: 6°C
P.to Rugiada: 4°C
Umidità: 81%
Barometro: 1026 hPa
Summary: Sereno
Visibility: greater than 10 km
2021/03/04 01:55 LIED 040155Z 36005KT CAVOK 07/04 Q1026 RMK SKC VIS MIN 9999 WIND THR 35 01006KT WIND THR 17 02004KT
 
LIEE - Cagliari-Elmas(A, Italy
Dati ricevuti: 04/03/2021 07:50
Sereno
Sereno
 Vento da N
Vento: N 9 km/h
Temperatura: 7°C
Temperatura del Vento: 6°C
P.to Rugiada: 7°C
Umidità: 100%
Barometro: 1025 hPa
Summary: Sereno
Visibility: greater than 10 km
2021/03/04 06:50 LIEE 040650Z 01005KT CAVOK 07/07 Q1025
LIEO - Olbia-Costa Smeralda, Italy
Dati ricevuti: 04/03/2021 07:50
Sereno
Sereno
 Vento da varies
Vento: varies 4 km/h
Temperatura: 3°C
P.to Rugiada: 2°C
Umidità: 93%
Barometro: 1026 hPa
Summary: Sereno
Visibility: greater than 10 km
2021/03/04 06:50 LIEO 040650Z VRB02KT CAVOK 03/02 Q1026
 
LIEA - Alghero, Italy
Dati ricevuti: 04/03/2021 07:50
Sereno
Sereno
 Vento da NNE
Vento: NNE 7 km/h
Temperatura: 6°C
Temperatura del Vento: 4°C
P.to Rugiada: 5°C
Umidità: 93%
Barometro: 1025 hPa
Summary: Sereno
Visibility: greater than 10 km
2021/03/04 06:50 LIEA 040650Z 03004KT CAVOK 06/05 Q1025
LICA - Catanzaro-Lamezia Terme, Italy
Dati ricevuti: 04/03/2021 07:50
Molto nuvoloso
Molto nuvoloso
 Vento da E
Vento: E 6 km/h
Temperatura: 7°C
P.to Rugiada: 6°C
Umidità: 93%
Barometro: 1027 hPa
Clouds: Molto nuvoloso
Visibility: 10 km
Cloud details: Molto nuvoloso 701 m
2021/03/04 06:50 LICA 040650Z AUTO 09003KT 9999 BKN023/// 07/06 Q1027
 
LIBQ - Cosenza-Monte Scuro, Italy
Dati ricevuti: 03/03/2021 13:55
Non Attivo
Sereno
Sereno
 Vento da O
Vento: O 7 km/h
Temperatura: 7°C
Temperatura del Vento: 6°C
P.to Rugiada: -19°C
Umidità: 14%
Barometro: 1028 hPa
Summary: Sereno
Visibility: greater than 10 km
2021/03/03 12:55 LIBQ 031255Z 26004KT 210V330 CAVOK 07/M19 Q1028
LICR - Reggio Calabria, Italy
Dati ricevuti: 04/03/2021 07:50
Sereno
Sereno
 Vento da varies
Vento: varies 9 km/h, Raffica: 30 km/h
Temperatura: 11°C
P.to Rugiada: 3°C
Umidità: 58%
Barometro: 1027 hPa
Clouds: Sereno
Visibility: 10 km
2021/03/04 06:50 LICR 040650Z AUTO VRB05G16KT 9999 NCD 11/03 Q1027
 
LIBV - Bari-Gioia Del Colle, Italy
Dati ricevuti: 04/03/2021 06:55
Patches of fog, Parz. nuvoloso
Patches of fog, Parz. nuvoloso
 Vento da NO
Vento: NO 2 km/h
Temperatura: 1°C
P.to Rugiada: 1°C
Umidità: 100%
Barometro: 1024 hPa
Summary: Patches of Fog
Clouds: Parz. nuvoloso
Visibility: 1 km
Cloud details: Parz. nuvoloso 30 m
2021/03/04 05:55 LIBV 040555Z 32001KT 1200 0300N R32L//// R14R//// BCFG SCT001 01/01 Q1024 RMK SCT VIS MIN 0300N WIND THR32 18002KT WIND THR14 27001KT RED
LIBD - Bari-Palese Macchie, Italy
Dati ricevuti: 04/03/2021 07:50
Patches of fog, Parz. nuvoloso
Patches of fog, Parz. nuvoloso
 Vento da SO
Vento: SO 7 km/h
Temperatura: 6°C
Temperatura del Vento: 4°C
P.to Rugiada: 4°C
Umidità: 87%
Barometro: 1026 hPa
Summary: Patches of Fog
Clouds: Parz. nuvoloso
Visibility: 10 km
Cloud details: Parz. nuvoloso 152 m
2021/03/04 06:50 LIBD 040650Z 22004KT 9999 BCFG SCT005 06/04 Q1026
 
LIBR - Brindisi-Casale, Italy
Dati ricevuti: 04/03/2021 07:50
Sereno
Sereno
 Vento da SO
Vento: SO 6 km/h
Temperatura: 8°C
P.to Rugiada: 5°C
Umidità: 82%
Barometro: 1026 hPa
Summary: Sereno
Visibility: greater than 10 km
2021/03/04 06:50 LIBR 040650Z 22003KT CAVOK 08/05 Q1026
LIRT - Trevico, Italy
Dati ricevuti: 04/03/2021 05:55
Non Attivo
Sereno
Sereno
 Vento da O
Vento: O 24 km/h
Temperatura: 3°C
Temperatura del Vento: -2°C
P.to Rugiada: 0°C
Umidità: 81%
Barometro: 1025 hPa
Summary: Sereno
Visibility: greater than 10 km
2021/03/04 04:55 LIRT 040455Z 28013KT CAVOK 03/00 Q1025 RMK SKC MON INVIS VAL INVIS VIS MIN 9999
 
LICB - Comiso, Italy
Dati ricevuti: 04/03/2021 07:50
Sereno
Sereno
 Vento da ENE
Vento: ENE 4 km/h
Temperatura: 9°C
P.to Rugiada: 7°C
Umidità: 87%
Barometro: 1027 hPa
Clouds: Sereno
Visibility: 10 km
2021/03/04 06:50 LICB 040650Z AUTO 06002KT 9999 NCD 09/07 Q1027
LICL - Gela, Italy
Dati ricevuti: 04/03/2021 06:55
Parz. nuvoloso
Parz. nuvoloso
 Vento da E
Vento: E 11 km/h
Temperatura: 10°C
Temperatura del Vento: 8°C
P.to Rugiada: 8°C
Umidità: 88%
Clouds: Parz. nuvoloso
Visibility: 8 km
2021/03/04 05:55 LICL 040555Z 08006KT 8000 NSC 10/08 Q//// RMK FEW FEW070 QUK 1 QUL 0 VIS MAR 8 KM VIS MIN 8000
 
LIBN - Lecce (it-Afb), Italy
Dati ricevuti: 04/03/2021 07:07
Mist, Parz. nuvoloso
Mist, Parz. nuvoloso
 Vento da ESE
Vento: ESE 4 km/h
Temperatura: 3°C
P.to Rugiada: 3°C
Umidità: 100%
Barometro: 1026 hPa
Summary: Mist
Clouds: Parz. nuvoloso
Visibility: 5 km
2021/03/04 06:07 LIBN 040607Z 11002KT 5000 BR NSC 03/03 Q1026 RMK SKC VIS MIN 5000 WIND THR14 13003KT WIND THR32 11002KT WHT
LICJ - Palermo-Punta Raisi, Italy
Dati ricevuti: 04/03/2021 07:50
Few Clouds
Few Clouds
 Vento da SSE
Vento: SSE 11 km/h
Temperatura: 11°C
P.to Rugiada: 7°C
Umidità: 77%
Barometro: 1027 hPa
Clouds: Few Clouds
Visibility: 10 km
Cloud details: Few Clouds 1829 m
2021/03/04 06:50 LICJ 040650Z 15006KT 130V190 9999 FEW060 11/07 Q1027
 
LICZ - Catania-Sigonella (nas), Italy
Dati ricevuti: 04/03/2021 06:55
Sereno
Sereno
 Vento da OSO
Vento: OSO 7 km/h
Temperatura: 4°C
Temperatura del Vento: 2°C
P.to Rugiada: 4°C
Umidità: 100%
Barometro: 1028 hPa
Summary: Sereno
Visibility: greater than 10 km
2021/03/04 05:55 LICZ 040555Z 25004KT CAVOK 04/04 Q1028 RMK SKC VIS MIN 9999 WIND THR28 25009KT WIND THR10 27005KT A3038 BLU
LICC - Catania-Fontanarossa, Italy
Dati ricevuti: 04/03/2021 07:50
Sereno
Sereno
 Vento da SO
Vento: SO 9 km/h
Temperatura: 6°C
Temperatura del Vento: 4°C
P.to Rugiada: 4°C
Umidità: 87%
Barometro: 1027 hPa
Summary: Sereno
Visibility: greater than 10 km
2021/03/04 06:50 LICC 040650Z 23005KT CAVOK 06/04 Q1027
 
LICT - Trapani-Birgi (a, Italy
Dati ricevuti: 04/03/2021 07:55
Parz. nuvoloso
Parz. nuvoloso
 Vento da ESE
Vento: ESE 4 km/h
Temperatura: 11°C
P.to Rugiada: 10°C
Umidità: 94%
Barometro: 1026 hPa
Clouds: Parz. nuvoloso
Visibility: 10 km
Cloud details: Few Clouds 610 m
Parz. nuvoloso 1219 m
2021/03/04 06:55 LICT 040655Z 12002KT 9999 FEW020 SCT040 11/10 Q1026
LICD - Agrigento-Lampedusa, Italy
Dati ricevuti: 04/03/2021 07:50
Few Clouds
Few Clouds
 Vento da SE
Vento: SE 28 km/h
Temperatura: 15°C
P.to Rugiada: 12°C
Umidità: 82%
Barometro: 1025 hPa
Clouds: Few Clouds
Visibility: 10 km
Cloud details: Few Clouds 732 m
2021/03/04 06:50 LICD 040650Z AUTO 13015KT 9999 FEW024/// 15/12 Q1025
 
LICG - Pantelleria(It-A, Italy
Dati ricevuti: 04/03/2021 07:50
Pioviggine, Parz. nuvoloso
Pioviggine, Parz. nuvoloso
 Vento da SE
Vento: SE 19 km/h
Temperatura: 14°C
P.to Rugiada: 11°C
Umidità: 82%
Barometro: 1026 hPa
Summary: Pioviggine
Clouds: Parz. nuvoloso
Visibility: 10 km
Cloud details: Few Clouds 305 m
Parz. nuvoloso 610 m
2021/03/04 06:50 LICG 040650Z 14010KT 9999 -RA FEW010 SCT020 14/11 Q1026
LIPX - Villafranca(Cv/M, Italy
Dati ricevuti: 04/03/2021 07:50
Parz. nuvoloso
Parz. nuvoloso
 Vento da NNE
Vento: NNE 2 km/h
Temperatura: 2°C
P.to Rugiada: 0°C
Umidità: 87%
Barometro: 1024 hPa
Clouds: Parz. nuvoloso
Visibility: 8 km
2021/03/04 06:50 LIPX 040650Z 02001KT 8000 NSC 02/00 Q1024
 
LIPO - Brescia/Montichiari, Italy
Dati ricevuti: 04/03/2021 07:50
Mist, Sereno
Mist, Sereno
 Vento da NNE
Vento: NNE 6 km/h
Temperatura: 4°C
P.to Rugiada: 2°C
Umidità: 87%
Barometro: 1024 hPa
Summary: Mist
Clouds: Sereno
Visibility: 4 km
2021/03/04 06:50 LIPO 040650Z AUTO 02003KT 4200 BR NCD 04/02 Q1024
LIPL - Ghedi (it-Afb), Italy
Dati ricevuti: 04/03/2021 06:55
Mist, Parz. nuvoloso
Mist, Parz. nuvoloso
 Vento da N
Vento: N 4 km/h
Temperatura: 2°C
P.to Rugiada: 2°C
Umidità: 100%
Barometro: 1023 hPa
Summary: Mist
Clouds: Parz. nuvoloso
Visibility: 4 km
2021/03/04 05:55 LIPL 040555Z 35002KT 3500 BR NSC 02/02 Q1023 RMK SCT SCT200 VIS MIN 3500 WIND THR31 35002KT WIND THR13 35001KT BLK YLO
 
LIMP - Parma, Italy
Dati ricevuti: 04/03/2021 07:50
Sereno
Sereno
 Vento da SSO
Vento: SSO 4 km/h
Temperatura: 2°C
P.to Rugiada: -1°C
Umidità: 81%
Barometro: 1024 hPa
Summary: Sereno
Visibility: greater than 10 km
2021/03/04 06:50 LIMP 040650Z 20002KT CAVOK 02/M01 Q1024
LIMS - Piacenza (it-Afb, Italy
Dati ricevuti: 04/03/2021 07:55
Sereno
Sereno
 Vento da O
Vento: O 9 km/h
Temperatura: 3°C
Temperatura del Vento: 0°C
P.to Rugiada: 3°C
Umidità: 100%
Barometro: 1023 hPa
Summary: Sereno
Visibility: greater than 10 km
2021/03/04 06:55 LIMS 040655Z 26005KT CAVOK 03/03 Q1023
 
LIPF - Ferrara (aut), Italy
Dati ricevuti: 04/03/2021 07:55
Mist, Parz. nuvoloso
Mist, Parz. nuvoloso
 Vento da varies
Vento: varies 0 km/h
Temperatura: 3°C
P.to Rugiada: 3°C
Umidità: 100%
Barometro: 1024 hPa
Summary: Mist
Clouds: Parz. nuvoloso
Visibility: 3 km
2021/03/04 06:55 LIPF 040655Z /////KT 3000 BR NSC 03/03 Q1024
LIPE - Bologna/Borgo (a, Italy
Dati ricevuti: 04/03/2021 07:50
Sereno
Sereno
 Vento da OSO
Vento: OSO 6 km/h
Temperatura: 3°C
P.to Rugiada: 1°C
Umidità: 87%
Barometro: 1024 hPa
Summary: Sereno
Visibility: greater than 10 km
2021/03/04 06:50 LIPE 040650Z 25003KT CAVOK 03/01 Q1024
 
LIPU - Padova (civ/It-A, Italy
Dati ricevuti: 03/03/2021 08:00
Non Attivo
Sereno
Sereno
 Vento da varies
Vento: varies 2 km/h
Temperatura: 4°C
P.to Rugiada: 2°C
Umidità: 87%
Barometro: 1032 hPa
Summary: Sereno
Visibility: greater than 10 km
2021/03/03 07:00 LIPU 030700Z VRB01KT CAVOK 04/02 Q1032
LIME - Bergamo/Orio Ser, Italy
Dati ricevuti: 04/03/2021 07:50
Sereno
Sereno
 Vento da N
Vento: N 2 km/h
Temperatura: 5°C
P.to Rugiada: 1°C
Umidità: 76%
Barometro: 1024 hPa
Summary: Sereno
Visibility: greater than 10 km
2021/03/04 06:50 LIME 040650Z 35001KT CAVOK 05/01 Q1024 NOSIG
 
LIMT - Cisa Pass, Italy
Dati ricevuti: 23/09/2019 13:55
Non Attivo
Nebbia
Nebbia
 Vento da calm
Vento: Calma
Temperatura: 10°C
P.to Rugiada: 10°C
Umidità: 100%
Barometro: 1014 hPa
Summary: Nebbia
Visibility: 0 km
2019/09/23 11:55 LIMT 231155Z 00000KT 0000 FG VV/// 10/10 Q1014 RMK MON INVIS VAL INVIS VIS MIN 0000
LIVC - Cimone Mountain, Italy
Dati ricevuti: 04/03/2021 06:55

 Vento da SO
Vento: SO 31 km/h
Temperatura: 1°C
Temperatura del Vento: -5°C
P.to Rugiada: -11°C
Umidità: 41%
Barometro: 1023 hPa
2021/03/04 05:55 LIVC 040555Z AUTO 23017KT //// 01/M11 Q1023
 
LIVP - Paganella Mounta, Italy
Dati ricevuti: 03/03/2021 13:55
Non Attivo
Sereno
Sereno
 Vento da S
Vento: S 9 km/h
Temperatura: 4°C
Temperatura del Vento: 2°C
P.to Rugiada: -13°C
Umidità: 28%
Barometro: 1029 hPa
Summary: Sereno
Visibility: greater than 10 km
2021/03/03 12:55 LIVP 031255Z 17005KT CAVOK 04/M13 Q1029
LIML - Milano/Linate, Italy
Dati ricevuti: 04/03/2021 07:50
Mist, Parz. nuvoloso
Mist, Parz. nuvoloso
 Vento da varies
Vento: varies 2 km/h
Temperatura: 3°C
P.to Rugiada: 3°C
Umidità: 100%
Barometro: 1024 hPa
Summary: Mist
Clouds: Parz. nuvoloso
Visibility: 5 km
2021/03/04 06:50 LIML 040650Z VRB01KT 5000 BR NSC 03/03 Q1024 NOSIG
 
LIPS - Istrana (it-Afb), Italy
Dati ricevuti: 04/03/2021 06:55
Mist, Nuvoloso
Mist, Nuvoloso
 Vento da NE
Vento: NE 9 km/h
Temperatura: 5°C
Temperatura del Vento: 3°C
P.to Rugiada: 4°C
Umidità: 93%
Barometro: 1024 hPa
Summary: Mist
Clouds: Molto nuvoloso
Visibility: 1 km
Cloud details: Molto nuvoloso 305 m
2021/03/04 05:55 LIPS 040555Z 05005KT 1000 BR BKN010 05/04 Q1024 RMK BKN VIS MIN 1000 WIND THR26 01005KT WIND THR08 05005KT AMB
LIPH - Treviso(Civ/It-A, Italy
Dati ricevuti: 04/03/2021 07:50
Nebbia, Coperto
Nebbia, Coperto
 Vento da NNE
Vento: NNE 7 km/h
Temperatura: 5°C
Temperatura del Vento: 3°C
P.to Rugiada: 5°C
Umidità: 100%
Barometro: 1024 hPa
Summary: Nebbia
Clouds: Coperto
Visibility: 1 km
Cloud details: Coperto 61 m
2021/03/04 06:50 LIPH 040650Z AUTO 02004KT 0900 R07/1000D FG OVC002/// 05/05 Q1024
 
LIPZ - Venezia/Tessera, Italy
Dati ricevuti: 04/03/2021 07:50
Nebbia
Nebbia
 Vento da NE
Vento: NE 7 km/h
Temperatura: 3°C
Temperatura del Vento: 1°C
P.to Rugiada: 3°C
Umidità: 100%
Barometro: 1024 hPa
Summary: Nebbia
Visibility: 0 km
2021/03/04 06:50 LIPZ 040650Z 04004KT 010V070 0050 R04R/0200N FG VV/// 03/03 Q1024 NOSIG
LIQW - Sarzana/Luni, Italy
Dati ricevuti: 04/03/2021 07:55
Few Clouds
Few Clouds
 Vento da O
Vento: O 11 km/h
Temperatura: 4°C
Temperatura del Vento: 1°C
P.to Rugiada: 3°C
Umidità: 93%
Barometro: 1026 hPa
Clouds: Few Clouds
Visibility: 10 km
Cloud details: Few Clouds 1219 m
2021/03/04 06:55 LIQW 040655Z 28006KT 9999 FEW040 04/03 Q1026
 
LIVR - Rolle Pass, Italy
Dati ricevuti: 04/03/2021 06:55
Sereno
Sereno
 Vento da N
Vento: N 4 km/h
Temperatura: -2°C
P.to Rugiada: -12°C
Umidità: 47%
Barometro: 1021 hPa
Summary: Sereno
Visibility: greater than 10 km
2021/03/04 05:55 LIVR 040555Z 01002KT CAVOK M02/M12 Q1021 RMK BKN BKN070 SCT200 MON LIB VIS MIN 9999
LIPK - Forli (civ/It-Af, Italy
Dati ricevuti: 03/03/2021 17:50
Non Attivo
Sereno
Sereno
 Vento da E
Vento: E 9 km/h
Temperatura: 13°C
P.to Rugiada: -1°C
Umidità: 38%
Barometro: 1028 hPa
Summary: Sereno
Visibility: greater than 10 km
2021/03/03 16:50 LIPK 031650Z 09005KT CAVOK 13/M01 Q1028
 
LIMV - Giovi Pass, Italy
Dati ricevuti: 03/03/2021 13:55
Non Attivo
Sereno
Sereno
 Vento da varies
Vento: varies 0 km/h
Temperatura: 13°C
P.to Rugiada: 1°C
Umidità: 44%
Barometro: 1030 hPa
Summary: Sereno
Visibility: greater than 10 km
2021/03/03 12:55 LIMV 031255Z /////KT CAVOK 13/01 Q1030
LIPB - Bolzano(Civ/It-A, Italy
Dati ricevuti: 04/03/2021 07:50
Sereno
Sereno
 Vento da calm
Vento: Calma
Temperatura: 1°C
P.to Rugiada: -1°C
Umidità: 87%
Barometro: 1025 hPa
Summary: Sereno
Visibility: greater than 10 km
2021/03/04 06:50 LIPB 040650Z 00000KT CAVOK 01/M01 Q1025
 
LIVD - Bolzano-Dobbiaco, Italy
Dati ricevuti: 04/03/2021 06:55
Coperto
Coperto
 Vento da varies
Vento: varies 0 km/h
Temperatura: -1°C
P.to Rugiada: -4°C
Umidità: 80%
Barometro: 1023 hPa
Clouds: Coperto
Visibility: 10 km
Cloud details: Coperto 1219 m
2021/03/04 05:55 LIVD 040555Z /////KT 9999 OVC040 M01/M04 Q1023 RMK OVC VIS MIN 9999 BLU
LIVE - Bolzano-Passo Resia, Italy
Dati ricevuti: 04/03/2021 06:55
Sereno
Sereno
 Vento da N
Vento: N 6 km/h
Temperatura: -2°C
P.to Rugiada: -5°C
Umidità: 80%
Barometro: 1021 hPa
Summary: Sereno
Visibility: greater than 10 km
2021/03/04 05:55 LIVE 040555Z 36003KT CAVOK M02/M05 Q1021 RMK BKN BKN100 VIS MIN 9999
 
LIMH - Aosta-Pian Rosa (mtn T, Italy
Dati ricevuti: 04/03/2021 06:55
Freezing Fog
Freezing Fog
 Vento da N
Vento: N 7 km/h
Temperatura: -8°C
Temperatura del Vento: -12°C
P.to Rugiada: -8°C
Umidità: 100%
Barometro: 1022 hPa
Summary: Freezing Fog
Visibility: 1 km
2021/03/04 05:55 LIMH 040555Z 36004KT 0800 FZFG VV/// M08/M08 Q1022 RMK MON INVIS VAL INVIS VIS MIN 0800
LIMZ - Cuneo/Levaldigi, Italy
Dati ricevuti: 04/03/2021 07:50
Parz. nuvoloso
Parz. nuvoloso
 Vento da OSO
Vento: OSO 7 km/h
Temperatura: 1°C
Temperatura del Vento: -2°C
P.to Rugiada: 0°C
Umidità: 93%
Barometro: 1023 hPa
Clouds: Parz. nuvoloso
Visibility: 10 km
Cloud details: Parz. nuvoloso 6401 m
2021/03/04 06:50 LIMZ 040650Z AUTO 25004KT 9999 SCT210/// 01/M00 Q1023
 
LIMK - Torino-Bric Della Croce, Italy
Dati ricevuti: 03/03/2021 13:55
Non Attivo
Molto nuvoloso
Molto nuvoloso
 Vento da calm
Vento: Calma
Temperatura: 11°C
P.to Rugiada: 1°C
Umidità: 50%
Barometro: 1030 hPa
Clouds: Molto nuvoloso
Visibility: 10 km
Cloud details: Molto nuvoloso 1219 m
2021/03/03 12:55 LIMK 031255Z 00000KT 9999 BKN040 11/01 Q1030
LIMN - Novara-Cameri (it-Afb), Italy
Dati ricevuti: 04/03/2021 06:55
Parz. nuvoloso
Parz. nuvoloso
 Vento da varies
Vento: varies 0 km/h
Temperatura: 1°C
P.to Rugiada: 0°C
Umidità: 93%
Barometro: 1024 hPa
Clouds: Parz. nuvoloso
Visibility: 6 km
2021/03/04 05:55 LIMN 040555Z /////KT 6000 NSC 01/00 Q1024 RMK BKN FEW100 BKN170 VIS MIN 6000 WHT
 
LIPA - Pordenone-Aviano (it/Us-Af, Italy
Dati ricevuti: 04/03/2021 06:55
Parz. nuvoloso
Parz. nuvoloso
 Vento da NE
Vento: NE 11 km/h
Temperatura: 3°C
Temperatura del Vento: 0°C
P.to Rugiada: 3°C
Umidità: 100%
Barometro: 1023 hPa
Clouds: Parz. nuvoloso
Visibility: 9 km
2021/03/04 05:55 LIPA 040555Z 04006KT 9000 NSC 03/03 Q1023 RMK BKN BKN200 VIS MIN 9000 WIND THR05/////KT WIND THR23/////KT A3025 BLU
LIPI - Udine-Rivolto (it-Afb), Italy
Dati ricevuti: 04/03/2021 06:55
Parz. nuvoloso
Parz. nuvoloso
 Vento da N
Vento: N 7 km/h
Temperatura: 2°C
Temperatura del Vento: 0°C
P.to Rugiada: 0°C
Umidità: 87%
Barometro: 1024 hPa
Clouds: Parz. nuvoloso
Visibility: 7 km
Cloud details: Parz. nuvoloso 122 m
Parz. nuvoloso 183 m
2021/03/04 05:55 LIPI 040555Z 36004KT 7000 SCT004 SCT006 02/M00 Q1024 RMK OVC VIS MIN 7000 WIND THR06 04004KT WIND THR24 04004KT WHT
 
LIVO - Udine-Tarvisio, Italy
Dati ricevuti: 04/03/2021 06:55
Sereno
Sereno
 Vento da O
Vento: O 7 km/h
Temperatura: 3°C
Temperatura del Vento: 1°C
P.to Rugiada: 0°C
Umidità: 81%
Barometro: 1021 hPa
Summary: Sereno
Visibility: greater than 10 km
2021/03/04 05:55 LIVO 040555Z 28004KT CAVOK 03/00 Q1021 RMK OVC OVC070 VIS MIN 9999
LIPQ - Trieste-Ronchi Dei Legionari, Italy
Dati ricevuti: 04/03/2021 07:50
Few Clouds
Few Clouds
 Vento da E
Vento: E 6 km/h
Temperatura: 3°C
P.to Rugiada: 0°C
Umidità: 81%
Barometro: 1024 hPa
Clouds: Few Clouds
Visibility: 10 km
Cloud details: Few Clouds 7315 m
2021/03/04 06:50 LIPQ 040650Z AUTO 09003KT 9999 FEW240/// 03/M00 Q1024
 
LIVT - Trieste, Italy
Dati ricevuti: 04/03/2021 06:55
Sereno
Sereno
 Vento da calm
Vento: Calma
Temperatura: 6°C
P.to Rugiada: 2°C
Umidità: 76%
Barometro: 1024 hPa
Summary: Sereno
Visibility: greater than 10 km
2021/03/04 05:55 LIVT 040555Z 00000KT CAVOK 06/02 Q1024 RMK BKN BKN160 QUK 0 QUL 0 VIS MAR 15 KM VIS MIN 9999
LIRQ - Firenze/Peretola, Italy
Dati ricevuti: 03/03/2021 17:50
Non Attivo
Sereno
Sereno
 Vento da varies
Vento: varies 0 km/h
Summary: Sereno
Visibility: greater than 10 km
2021/03/03 16:50 LIRQ 031650Z /////KT CAVOK Q////
 
LIPK - Forli (civ/It-Af, Italy
Dati ricevuti: 03/03/2021 17:50
Non Attivo
Sereno
Sereno
 Vento da E
Vento: E 9 km/h
Temperatura: 13°C
P.to Rugiada: -1°C
Umidità: 38%
Barometro: 1028 hPa
Summary: Sereno
Visibility: greater than 10 km
2021/03/03 16:50 LIPK 031650Z 09005KT CAVOK 13/M01 Q1028
LIRS - Grosseto (it-Afb, Italy
Dati ricevuti: 04/03/2021 07:55
Few Clouds
Few Clouds
 Vento da NNE
Vento: NNE 6 km/h
Temperatura: 3°C
P.to Rugiada: 1°C
Umidità: 87%
Barometro: 1026 hPa
Clouds: Few Clouds
Visibility: 10 km
Cloud details: Few Clouds 610 m
2021/03/04 06:55 LIRS 040655Z 03003KT 9999 FEW020 03/01 Q1026
 
LIRP - Pisa (civ/It-Afb, Italy
Dati ricevuti: 04/03/2021 07:45
Sereno
Sereno
 Vento da SE
Vento: SE 9 km/h
Temperatura: 3°C
Temperatura del Vento: 0°C
P.to Rugiada: 3°C
Umidità: 100%
Barometro: 1026 hPa
Summary: Sereno
Visibility: greater than 10 km
2021/03/04 06:45 LIRP 040645Z 14005KT CAVOK 03/03 Q1026 NOSIG
LIVF - Frontone, Italy
Dati ricevuti: 03/03/2021 13:55
Non Attivo
Sereno
Sereno
 Vento da NE
Vento: NE 6 km/h
Temperatura: 13°C
P.to Rugiada: -2°C
Umidità: 36%
Barometro: 1028 hPa
Summary: Sereno
Visibility: greater than 10 km
2021/03/03 12:55 LIVF 031255Z 04003KT CAVOK 13/M02 Q1028
 
LIPC - Cervia (it-Afb), Italy
Dati ricevuti: 04/03/2021 07:55
Sereno
Sereno
 Vento da NO
Vento: NO 4 km/h
Temperatura: 2°C
P.to Rugiada: 2°C
Umidità: 100%
Barometro: 1024 hPa
Summary: Sereno
Visibility: greater than 10 km
2021/03/04 06:55 LIPC 040655Z 32002KT CAVOK 02/02 Q1024
LIPR - Rimini (civ/It-A, Italy
Dati ricevuti: 04/03/2021 07:50
Sereno
Sereno
 Vento da varies
Vento: varies 2 km/h
Temperatura: 2°C
P.to Rugiada: 0°C
Umidità: 87%
Barometro: 1024 hPa
Clouds: Sereno
Visibility: 10 km
2021/03/04 06:50 LIPR 040650Z AUTO VRB01KT 9999 NCD 02/00 Q1024
 
LIRX - Monte Calamita, Italy
Dati ricevuti: 04/03/2021 06:55
Coperto
Coperto
 Vento da calm
Vento: Calma
Temperatura: 9°C
P.to Rugiada: 7°C
Umidità: 87%
Barometro: 1025 hPa
Clouds: Coperto
Visibility: 7 km
Cloud details: Coperto 122 m
2021/03/04 05:55 LIRX 040555Z 00000KT 7000 OVC004 09/07 Q1025 RMK OVC VIS MIN 7000 VIS MAR 7 KM
LIVM - Punta Marina/Rav, Italy
Dati ricevuti: 04/03/2021 06:55

 Vento da OSO
Vento: OSO 6 km/h
Temperatura: 3°C
P.to Rugiada: 1°C
Umidità: 87%
Barometro: 1025 hPa
2021/03/04 05:55 LIVM 040555Z AUTO 24003KT //// 03/01 Q1025